Time;durP1;ratioP1;P1;durP2;ratioP2;P2;SDS_P1;SDS_P2;PMS_P1;PMS_P2;Temp;Humidity;BMP_temperature;BMP_pressure;BME280_temperature;BME280_humidity;BME280_pressure;Samples;Min_cycle;Max_cycle;Signal;HPM_P1;HPM_P2
2022/03/22 00:01:35;;;;;;;21.02;7.00;;;;;;;3.09;50.34;101720.66;6183832;23;20017;-85
2022/03/22 00:04:02;;;;;;;19.35;7.25;;;;;;;2.71;50.44;101649.28;6160246;23;20021;-84
2022/03/22 00:06:31;;;;;;;24.27;7.47;;;;;;;2.60;50.51;101632.41;6187137;23;20021;-83
2022/03/22 00:08:57;;;;;;;28.33;7.78;;;;;;;3.25;50.21;101736.06;6158465;23;20037;-84
2022/03/22 00:11:23;;;;;;;22.48;6.97;;;;;;;2.64;50.12;101629.19;6157785;23;20048;-85
2022/03/22 00:13:49;;;;;;;24.58;7.25;;;;;;;2.15;49.79;101577.75;6182293;23;20017;-85
2022/03/22 00:16:15;;;;;;;28.88;7.00;;;;;;;2.08;50.06;101558.56;6186041;23;20070;-84
2022/03/22 00:18:46;;;;;;;32.70;8.90;;;;;;;2.93;50.40;101736.94;6189872;23;20017;-84
2022/03/22 00:21:14;;;;;;;22.60;7.97;;;;;;;2.84;50.45;101737.34;6159306;23;20017;-84
2022/03/22 00:23:43;;;;;;;22.15;7.80;;;;;;;2.85;50.51;101744.25;6160724;23;20478;-87
2022/03/22 00:26:09;;;;;;;22.30;7.30;;;;;;;2.86;50.51;101730.59;6143502;23;20017;-83
2022/03/22 00:28:35;;;;;;;16.75;6.95;;;;;;;2.45;50.78;101660.72;6189026;23;20443;-86
2022/03/22 00:31:02;;;;;;;23.13;7.10;;;;;;;2.32;50.46;101633.47;6161310;23;20460;-85
2022/03/22 00:33:28;;;;;;;25.13;8.00;;;;;;;2.48;50.20;101650.63;6164276;23;20020;-84
2022/03/22 00:35:54;;;;;;;22.55;8.20;;;;;;;2.82;50.83;101706.41;6177069;23;20013;-85
2022/03/22 00:38:21;;;;;;;30.35;7.85;;;;;;;1.95;50.09;101560.47;6166658;23;20020;-84
2022/03/22 00:40:49;;;;;;;21.95;7.57;;;;;;;2.52;50.39;101642.28;6190444;23;20040;-84
2022/03/22 00:43:15;;;;;;;20.55;7.22;;;;;;;2.69;50.37;101660.28;6176574;23;20083;-86
2022/03/22 00:45:42;;;;;;;25.50;7.60;;;;;;;2.32;50.69;101615.50;6175262;23;20017;-86
2022/03/22 00:48:13;;;;;;;22.92;8.25;;;;;;;1.10;49.95;101409.56;6195840;23;20017;-85
2022/03/22 00:50:44;;;;;;;;;;;;;;;2.82;50.23;101713.22;6163594;23;20016;-88
2022/03/22 00:53:18;;;;;;;26.50;7.63;;;;;;;2.75;50.51;101719.75;6183401;23;19916;-86
2022/03/22 00:55:48;;;;;;;19.65;7.35;;;;;;;1.01;50.83;101430.44;6162095;23;20489;-86
2022/03/22 00:58:15;;;;;;;29.27;8.05;;;;;;;2.49;50.97;101697.78;6166633;23;20552;-88
2022/03/22 01:00:42;;;;;;;27.63;8.50;;;;;;;1.99;50.78;101612.88;6165968;23;20024;-88
2022/03/22 01:03:09;;;;;;;24.38;8.05;;;;;;;2.30;50.26;101686.50;6164258;23;20013;-87
2022/03/22 01:05:38;;;;;;;23.80;8.57;;;;;;;2.45;51.31;101718.97;6162290;23;20017;-88
2022/03/22 01:08:10;;;;;;;25.55;8.68;;;;;;;1.52;50.94;101544.38;6167960;23;20055;-87
2022/03/22 01:10:41;;;;;;;;;;;;;;;2.39;50.98;101697.25;6153011;23;20035;-87
2022/03/22 01:13:08;;;;;;;21.83;7.78;;;;;;;1.34;50.50;101539.97;6204802;23;19916;-86
2022/03/22 01:15:38;;;;;;;26.13;8.52;;;;;;;0.70;50.87;101428.72;6180844;23;20028;-85
2022/03/22 01:18:07;;;;;;;22.10;8.25;;;;;;;1.91;50.76;101650.06;6183980;23;20047;-85
2022/03/22 01:20:48;;;;;;;26.38;8.18;;;;;;;1.23;51.43;101538.47;6180828;23;20031;-83
2022/03/22 01:23:15;;;;;;;23.58;7.55;;;;;;;0.44;51.08;101414.41;6166354;23;20095;-84
2022/03/22 01:25:43;;;;;;;18.02;7.43;;;;;;;0.83;50.93;101479.00;6167076;23;20017;-86
2022/03/22 01:28:12;;;;;;;16.45;6.75;;;;;;;2.00;51.82;101680.50;6166995;23;20545;-84
2022/03/22 01:30:41;;;;;;;17.58;7.43;;;;;;;1.37;51.52;101591.47;6139599;23;20013;-87
2022/03/22 01:33:11;;;;;;;18.83;7.10;;;;;;;0.97;52.16;101525.94;6159102;23;20013;-83
2022/03/22 01:35:38;;;;;;;18.70;7.72;;;;;;;0.82;51.74;101505.41;6141238;23;20109;-85
2022/03/22 01:38:05;;;;;;;20.92;6.68;;;;;;;0.73;51.81;101504.91;6169818;23;20072;-86
2022/03/22 01:40:42;;;;;;;20.27;6.97;;;;;;;1.42;52.03;101581.47;6190959;23;20059;-87
2022/03/22 01:43:11;;;;;;;19.20;7.05;;;;;;;1.08;51.85;101525.69;6134594;23;20017;-84
2022/03/22 01:45:38;;;;;;;22.65;8.63;;;;;;;1.40;51.73;101571.13;6156169;23;20018;-87
2022/03/22 01:48:05;;;;;;;19.38;7.60;;;;;;;1.35;51.80;101586.22;6156661;23;20021;-85
2022/03/22 01:50:31;;;;;;;25.80;8.57;;;;;;;2.06;52.03;101716.81;6129347;23;20017;-87
2022/03/22 01:53:00;;;;;;;15.63;7.53;;;;;;;1.49;52.05;101584.44;6177622;23;20029;-86
2022/03/22 01:55:28;;;;;;;20.92;7.78;;;;;;;0.52;51.47;101418.31;6129345;23;20017;-84
2022/03/22 01:57:56;;;;;;;23.20;8.48;;;;;;;1.17;52.35;101556.97;6156966;23;20096;-85
2022/03/22 02:00:24;;;;;;;17.60;7.13;;;;;;;0.63;52.09;101424.03;6164947;23;20027;-84
2022/03/22 02:05:52;;;;;;;16.35;6.82;;;;;;;1.92;51.89;101634.75;6152893;23;20023;-87
2022/03/22 02:08:19;;;;;;;14.95;7.50;;;;;;;2.19;52.08;101683.34;6177730;23;20076;-86
2022/03/22 02:10:47;;;;;;;18.45;7.07;;;;;;;1.67;51.84;101603.38;6127607;23;20021;-84
2022/03/22 02:13:13;;;;;;;19.33;6.65;;;;;;;0.66;51.52;101431.00;6152600;23;20017;-84
2022/03/22 02:15:39;;;;;;;22.00;7.45;;;;;;;0.92;51.79;101476.06;6152897;23;20091;-84
2022/03/22 02:18:05;;;;;;;17.52;6.65;;;;;;;1.67;52.11;101604.25;6176464;23;20524;-83
2022/03/22 02:20:32;;;;;;;17.90;7.43;;;;;;;1.69;51.95;101609.47;6151504;23;20020;-85
2022/03/22 02:23:05;;;;;;;19.75;7.57;;;;;;;1.37;51.84;101575.19;6154616;23;20018;-87
2022/03/22 02:25:35;;;;;;;18.02;7.30;;;;;;;2.06;52.07;101671.50;6128066;23;20017;-85
2022/03/22 02:28:03;;;;;;;17.08;7.32;;;;;;;1.14;51.61;101529.47;6151982;23;20018;-86
2022/03/22 02:30:29;;;;;;;18.15;7.22;;;;;;;1.03;51.73;101495.53;6175906;23;20028;-86
2022/03/22 02:32:59;;;;;;;17.75;7.47;;;;;;;1.54;51.64;101555.59;6158673;23;20017;-86
2022/03/22 02:35:29;;;;;;;19.75;6.90;;;;;;;1.92;51.50;101626.16;6189194;23;20406;-87
2022/03/22 02:37:55;;;;;;;19.08;7.03;;;;;;;1.94;51.78;101625.47;6128308;23;20028;-86
2022/03/22 02:40:24;;;;;;;15.52;6.60;;;;;;;0.95;52.00;101460.00;6180927;23;20033;-89
2022/03/22 02:42:53;;;;;;;15.15;6.82;;;;;;;0.44;52.06;101381.09;6153286;23;20044;-88
2022/03/22 02:45:23;;;;;;;13.90;6.03;;;;;;;1.55;51.57;101572.78;6102699;23;20614;-87
2022/03/22 02:47:51;;;;;;;15.18;6.35;;;;;;;1.57;51.83;101559.22;6176207;23;20029;-86
2022/03/22 02:50:18;;;;;;;15.60;6.32;;;;;;;1.28;51.79;101508.84;6151526;23;20367;-85
2022/03/22 02:52:47;;;;;;;17.58;6.05;;;;;;;1.19;51.60;101481.00;6175784;23;20024;-87
2022/03/22 02:55:14;;;;;;;11.50;5.82;;;;;;;1.13;51.26;101484.09;6152005;23;20021;-85
2022/03/22 02:57:40;;;;;;;15.15;6.00;;;;;;;2.28;51.77;101658.94;6127054;23;20060;-87
2022/03/22 03:00:10;;;;;;;13.80;6.05;;;;;;;1.70;51.12;101568.50;6154087;23;20017;-87
2022/03/22 03:02:42;;;;;;;15.57;5.90;;;;;;;2.30;50.88;101652.19;6153860;23;20447;-87
2022/03/22 03:05:08;;;;;;;10.52;5.60;;;;;;;1.99;50.80;101600.03;6179190;23;20039;-86
2022/03/22 03:07:35;;;;;;;15.57;6.55;;;;;;;1.11;51.27;101451.47;6168470;23;20099;-86
2022/03/22 03:10:01;;;;;;;16.23;6.80;;;;;;;1.67;51.06;101550.34;6151667;23;20052;-86
2022/03/22 03:12:28;;;;;;;14.73;5.95;;;;;;;0.50;50.93;101360.97;6149899;23;20021;-87
2022/03/22 03:14:54;;;;;;;13.15;6.00;;;;;;;1.34;50.64;101486.97;6151836;23;20014;-87
2022/03/22 03:17:21;;;;;;;15.85;6.05;;;;;;;1.52;50.36;101524.75;6151359;23;20025;-88
2022/03/22 03:19:50;;;;;;;12.57;6.47;;;;;;;1.85;50.60;101588.13;6151411;23;20021;-87
2022/03/22 03:22:18;;;;;;;16.40;6.15;;;;;;;2.24;50.76;101648.47;6176299;23;20018;-86
2022/03/22 03:24:44;;;;;;;11.55;5.80;;;;;;;1.24;50.38;101471.88;6152097;23;20025;-84
2022/03/22 03:27:10;;;;;;;11.13;6.22;;;;;;;1.85;50.25;101588.13;6152818;23;20116;-83
2022/03/22 03:29:36;;;;;;;13.07;6.00;;;;;;;2.28;50.42;101641.84;6165113;23;20022;-83
2022/03/22 03:32:03;;;;;;;14.75;6.30;;;;;;;1.72;50.21;101559.19;6131921;23;20474;-81
2022/03/22 03:34:29;;;;;;;11.07;5.40;;;;;;;1.78;50.51;101553.50;6153206;23;20017;-81
2022/03/22 03:36:55;;;;;;;10.27;5.20;;;;;;;1.77;50.54;101560.34;6158310;23;20030;-83
2022/03/22 03:39:21;;;;;;;12.23;5.50;;;;;;;2.08;49.90;101610.81;6179486;23;20017;-84
2022/03/22 03:42:00;;;;;;;11.32;5.80;;;;;;;2.06;49.88;101589.31;6144572;23;20080;-82
2022/03/22 03:47:15;;;;;;;14.30;6.18;;;;;;;2.05;49.98;101581.50;6185202;23;20021;-82
2022/03/22 03:49:47;;;;;;;13.13;5.72;;;;;;;2.41;50.21;101633.13;6184172;23;20017;-83
2022/03/22 03:52:18;;;;;;;13.35;5.75;;;;;;;2.22;49.98;101601.28;6182043;23;20009;-82
2022/03/22 03:54:45;;;;;;;14.02;6.18;;;;;;;2.52;49.84;101632.00;6185636;23;20017;-85
2022/03/22 03:57:12;;;;;;;11.52;6.28;;;;;;;2.56;49.89;101633.03;6160776;23;20021;-80
2022/03/22 03:59:40;;;;;;;13.30;5.55;;;;;;;2.59;49.78;101620.34;6185461;23;20116;-82
2022/03/22 04:02:08;;;;;;;17.02;5.93;;;;;;;2.50;49.57;101600.19;6186453;23;20101;-82
2022/03/22 04:04:35;;;;;;;12.07;5.72;;;;;;;2.42;49.76;101586.06;6160340;23;20017;-87
2022/03/22 04:07:06;;;;;;;13.27;5.25;;;;;;;2.63;49.53;101596.56;6159781;23;20017;-83
2022/03/22 04:09:36;;;;;;;13.98;5.82;;;;;;;2.57;49.33;101575.69;6160529;23;20160;-83
2022/03/22 04:12:04;;;;;;;13.55;5.60;;;;;;;2.73;49.39;101594.50;6183509;23;20017;-84
2022/03/22 04:14:30;;;;;;;13.68;6.13;;;;;;;2.96;49.39;101627.41;6181639;23;20065;-81
2022/03/22 04:16:57;;;;;;;10.68;5.28;;;;;;;2.44;49.05;101517.63;6182949;23;20028;-84
2022/03/22 04:19:26;;;;;;;12.60;6.28;;;;;;;2.88;49.49;101579.84;6155366;23;20021;-86
2022/03/22 04:21:53;;;;;;;13.43;6.32;;;;;;;3.40;48.60;101637.31;6156214;23;20020;-83
2022/03/22 04:24:19;;;;;;;17.17;5.95;;;;;;;3.49;48.97;101606.88;6163949;23;20017;-83
2022/03/22 04:26:46;;;;;;;13.38;6.38;;;;;;;3.10;48.50;101524.34;6193252;23;20021;-82
2022/03/22 04:34:45;;;;;;;13.73;5.70;;;;;;;4.18;47.61;101582.63;6162963;23;20477;-83
2022/03/22 04:37:14;;;;;;;11.82;6.28;;;;;;;3.88;46.79;101460.19;6189613;23;20152;-82
2022/03/22 04:39:46;;;;;;;14.18;5.82;;;;;;;4.79;46.46;101507.06;6171131;23;20025;-83
2022/03/22 04:42:14;;;;;;;13.20;5.53;;;;;;;5.54;45.89;101522.97;6154622;23;20031;-81
2022/03/22 04:44:41;;;;;;;14.13;5.72;;;;;;;5.82;44.93;101531.81;6134692;23;20022;-82
2022/03/22 04:47:07;;;;;;;11.02;5.25;;;;;;;5.55;44.48;101424.88;6168532;23;20076;-82
2022/03/22 04:49:34;;;;;;;16.95;5.78;;;;;;;6.08;43.69;101519.88;6171494;23;20017;-83
2022/03/22 04:57:29;;;;;;;12.27;6.25;;;;;;;7.65;43.26;101561.41;6161960;23;20017;-82
2022/03/22 04:59:55;;;;;;;16.65;7.28;;;;;;;9.49;41.84;101586.38;6132418;23;20024;-83
2022/03/22 05:02:21;;;;;;;17.23;6.57;;;;;;;10.91;39.88;101549.44;6127962;23;20103;-83
2022/03/22 05:04:48;;;;;;;13.73;5.88;;;;;;;11.94;37.75;101463.19;6156277;23;20080;-83
2022/03/22 05:07:14;;;;;;;15.15;6.95;;;;;;;13.64;35.83;101557.97;6155874;23;20109;-83
2022/03/22 05:09:40;;;;;;;22.95;7.05;;;;;;;14.66;34.57;101539.19;6151936;23;20028;-84
2022/03/22 05:12:06;;;;;;;20.77;7.00;;;;;;;15.12;32.73;101456.22;6176956;23;20076;-86
2022/03/22 05:14:34;;;;;;;17.10;6.78;;;;;;;16.24;31.50;101465.47;6127080;23;20040;-84
2022/03/22 05:17:05;;;;;;;19.00;7.05;;;;;;;17.54;30.17;101531.09;6154099;23;20044;-84
2022/03/22 05:19:32;;;;;;;22.60;7.35;;;;;;;17.96;29.10;101468.28;6151670;23;20025;-87
2022/03/22 05:21:58;;;;;;;16.80;7.28;;;;;;;18.53;27.74;101432.34;6153746;23;20025;-83
2022/03/22 05:24:26;;;;;;;21.02;7.88;;;;;;;19.09;26.90;101420.88;6127246;23;20106;-83
2022/03/22 05:26:54;;;;;;;22.17;7.75;;;;;;;19.87;26.15;101462.44;6176857;23;20527;-83
2022/03/22 05:29:21;;;;;;;18.23;7.90;;;;;;;20.70;24.98;101469.41;6151597;23;20024;-81
2022/03/22 05:31:47;;;;;;;14.60;8.13;;;;;;;21.56;24.50;101542.22;6151583;23;20502;-83
2022/03/22 05:34:13;;;;;;;21.67;8.77;;;;;;;21.86;23.45;101540.50;6175612;23;20049;-84
2022/03/22 05:36:40;;;;;;;22.90;8.88;;;;;;;21.84;23.13;101492.00;6175993;23;20059;-86
2022/03/22 05:39:07;;;;;;;19.42;8.82;;;;;;;22.22;22.65;101486.47;6152809;23;20017;-87
2022/03/22 05:41:33;;;;;;;20.73;8.45;;;;;;;22.10;22.11;101437.34;6130883;23;20023;-83
2022/03/22 05:43:59;;;;;;;23.75;9.60;;;;;;;22.67;21.49;101445.25;6160593;23;20021;-86
2022/03/22 05:46:25;;;;;;;24.85;9.20;;;;;;;23.56;20.74;101505.03;6184453;23;20426;-86
2022/03/22 05:48:57;;;;;;;17.25;8.10;;;;;;;23.39;20.49;101364.88;6182880;23;20017;-83
2022/03/22 05:51:24;;;;;;;17.02;8.00;;;;;;;24.66;19.59;101438.75;6131776;23;20107;-89
2022/03/22 05:53:52;;;;;;;17.80;8.73;;;;;;;24.96;19.54;101372.72;6181998;23;20095;-87
2022/03/22 05:56:18;;;;;;;25.58;9.38;;;;;;;26.43;18.71;101495.66;6157255;23;20017;-89
2022/03/22 05:58:44;;;;;;;23.98;9.05;;;;;;;26.58;18.27;101423.81;6158449;23;20098;-86
2022/03/22 06:01:13;;;;;;;20.27;9.30;;;;;;;26.60;18.08;101371.19;6183277;23;20016;-86
2022/03/22 06:03:40;;;;;;;24.65;9.50;;;;;;;27.14;17.48;101423.63;6186602;23;20013;-87
2022/03/22 06:06:06;;;;;;;19.95;9.07;;;;;;;28.15;17.37;101491.25;6158003;23;20016;-86
2022/03/22 06:08:32;;;;;;;22.13;9.05;;;;;;;28.82;16.69;101523.13;6132992;23;20044;-89
2022/03/22 06:10:58;;;;;;;18.65;8.55;;;;;;;28.85;16.07;101431.88;6182902;23;20043;-89
2022/03/22 06:13:24;;;;;;;20.02;8.40;;;;;;;29.35;15.34;101407.41;6184383;23;20016;-88
2022/03/22 06:15:52;;;;;;;28.40;9.70;;;;;;;30.06;15.10;101431.56;6159212;23;20012;-89
2022/03/22 06:18:17;;;;;;;26.70;9.73;;;;;;;30.51;14.87;101442.84;6185138;23;20092;-84
2022/03/22 06:20:44;;;;;;;20.02;9.27;;;;;;;31.49;14.59;101513.31;6184046;23;20017;-89
2022/03/22 06:23:13;;;;;;;26.95;9.50;;;;;;;31.27;14.23;101382.22;6168076;23;20013;-87
2022/03/22 06:25:41;;;;;;;21.67;9.35;;;;;;;32.28;14.24;101464.59;6186441;23;20017;-85
2022/03/22 06:28:09;;;;;;;25.42;10.13;;;;;;;32.52;13.17;101445.72;6178809;23;20008;-84
2022/03/22 06:30:36;;;;;;;28.98;9.70;;;;;;;32.80;13.62;101457.06;6205086;23;20064;-83
2022/03/22 06:33:09;;;;;;;21.35;8.70;;;;;;;33.57;12.86;101460.09;6181355;23;20481;-85
2022/03/22 06:35:35;;;;;;;24.73;8.40;;;;;;;33.62;12.59;101349.97;6179132;23;20017;-82
2022/03/22 06:38:03;;;;;;;23.05;8.75;;;;;;;34.94;12.48;101450.56;6176264;23;20024;-85
2022/03/22 06:40:33;;;;;;;15.27;7.22;;;;;;;35.62;11.84;101416.69;6176449;23;20088;-82
2022/03/22 06:43:04;;;;;;;12.60;6.55;;;;;;;36.57;11.25;101483.94;6154157;23;20018;-83
2022/03/22 06:45:30;;;;;;;21.85;6.78;;;;;;;37.39;10.97;101470.75;6203104;23;20005;-85
2022/03/22 06:47:56;;;;;;;17.05;6.38;;;;;;;37.01;10.46;101335.16;6173069;23;20018;-85
2022/03/22 06:50:26;;;;;;;21.48;7.00;;;;;;;37.81;10.26;101394.25;6202329;23;20217;-86
2022/03/22 06:52:54;;;;;;;20.58;7.75;;;;;;;38.62;10.45;101462.22;6152772;23;20029;-86
2022/03/22 06:55:22;;;;;;;18.10;7.10;;;;;;;39.35;10.05;101472.91;6172261;23;20072;-85
2022/03/22 06:57:51;;;;;;;23.42;8.00;;;;;;;39.20;9.35;101451.69;6156864;23;20097;-84
2022/03/22 07:00:19;;;;;;;23.00;9.05;;;;;;;38.68;9.69;101384.59;6177716;23;20021;-87
2022/03/22 07:02:47;;;;;;;33.20;8.35;;;;;;;39.24;9.48;101444.91;6130619;23;20033;-84
2022/03/22 07:05:14;;;;;;;25.77;7.28;;;;;;;39.42;9.52;101403.16;6154235;23;20018;-86
2022/03/22 07:07:40;;;;;;;23.60;8.45;;;;;;;40.00;9.09;101466.81;6129252;23;20028;-83
2022/03/22 07:10:12;;;;;;;20.10;7.93;;;;;;;39.13;8.95;101437.06;6152763;23;20411;-86
2022/03/22 07:13:04;;;;;;;16.92;7.47;;;;;;;37.84;8.92;101452.81;6156127;23;20054;-85
2022/03/22 07:15:33;;;;;;;17.48;7.38;;;;;;;37.68;9.05;101445.34;6153498;23;20154;-86
2022/03/22 07:18:03;;;;;;;20.33;8.15;;;;;;;37.51;9.54;101453.28;6128454;23;20044;-86
2022/03/22 07:20:29;;;;;;;20.17;7.43;;;;;;;36.82;9.65;101393.00;6176686;23;20482;-86
2022/03/22 07:22:56;;;;;;;14.82;6.85;;;;;;;37.19;9.67;101449.13;6178091;23;20039;-85
2022/03/22 07:25:29;;;;;;;19.70;6.68;;;;;;;37.27;9.12;101387.84;6154707;23;20013;-85
2022/03/22 07:27:56;;;;;;;20.58;7.40;;;;;;;37.89;9.41;101431.47;6151797;23;20035;-87
2022/03/22 07:30:22;;;;;;;20.77;6.38;;;;;;;38.48;9.09;101417.44;6154655;23;20506;-86
2022/03/22 07:32:48;;;;;;;19.77;6.72;;;;;;;39.06;9.26;101441.44;6137242;23;20104;-82
2022/03/22 07:35:17;;;;;;;27.10;7.03;;;;;;;38.89;8.54;101407.84;6154975;23;20021;-84
2022/03/22 07:37:43;;;;;;;15.57;5.93;;;;;;;38.42;8.68;101367.28;6153769;23;20017;-87
2022/03/22 07:40:10;;;;;;;21.88;6.07;;;;;;;39.20;8.43;101407.31;6153700;23;20408;-85
2022/03/22 07:42:37;;;;;;;14.48;5.65;;;;;;;39.85;8.42;101403.13;6122545;23;20459;-85
2022/03/22 07:45:06;;;;;;;15.30;5.05;;;;;;;40.44;8.56;101424.78;6166819;23;20017;-81
2022/03/22 07:47:33;;;;;;;16.85;5.10;;;;;;;40.98;8.26;101400.63;6149921;23;20063;-84
2022/03/22 07:53:06;;;;;;;17.15;4.57;;;;;;;41.66;8.22;101384.63;6155735;23;20037;-83
2022/03/22 07:55:35;;;;;;;17.70;4.88;;;;;;;42.60;8.00;101425.34;6153157;23;20119;-84
2022/03/22 07:58:02;;;;;;;13.32;5.18;;;;;;;43.00;7.34;101448.88;6153843;23;20439;-84
2022/03/22 08:00:31;;;;;;;10.77;4.78;;;;;;;42.64;7.48;101389.44;6155434;23;20029;-85
2022/03/22 08:03:03;;;;;;;12.43;4.17;;;;;;;41.88;7.01;101355.59;6157536;23;20025;-83
2022/03/22 08:05:32;;;;;;;16.88;4.85;;;;;;;41.19;7.02;101406.38;6132939;23;20068;-88
2022/03/22 08:08:02;;;;;;;11.85;4.88;;;;;;;40.35;7.45;101382.19;6132566;23;20063;-85
2022/03/22 08:10:28;;;;;;;16.60;4.22;;;;;;;40.59;7.51;101424.94;6158927;23;20017;-85
2022/03/22 08:12:54;;;;;;;10.40;4.30;;;;;;;40.77;7.49;101404.81;6153454;23;20216;-85
2022/03/22 08:15:20;;;;;;;38.70;5.65;;;;;;;41.91;7.73;101441.81;6128947;23;20455;-85
2022/03/22 08:17:47;;;;;;;14.20;3.92;;;;;;;42.82;7.14;101391.78;6153358;23;20017;-84
2022/03/22 08:20:14;;;;;;;15.57;4.22;;;;;;;42.99;6.64;101419.81;6156380;23;20041;-84
2022/03/22 08:23:07;;;;;;;10.57;4.15;;;;;;;41.24;6.85;101357.56;6164436;23;20036;-84
2022/03/22 08:25:38;;;;;;;10.52;4.30;;;;;;;40.58;7.41;101398.69;6116625;23;20044;-82
2022/03/22 08:28:07;;;;;;;17.75;4.65;;;;;;;40.05;7.14;101365.50;6170356;23;20021;-84
2022/03/22 08:30:34;;;;;;;26.85;5.63;;;;;;;38.71;7.01;101397.88;6141722;23;20013;-81
2022/03/22 08:33:06;;;;;;;10.90;4.38;;;;;;;38.25;7.97;101398.88;6117750;23;20040;-82
2022/03/22 08:35:33;;;;;;;12.77;4.15;;;;;;;38.65;7.66;101338.69;6144802;23;20062;-84
2022/03/22 08:37:58;;;;;;;14.52;4.70;;;;;;;39.15;7.39;101369.72;6133689;23;20043;-85
2022/03/22 08:40:25;;;;;;;14.68;4.13;;;;;;;39.21;7.35;101374.50;6158553;23;20367;-83
2022/03/22 08:42:53;;;;;;;12.85;4.18;;;;;;;39.54;6.83;101400.97;6149557;23;20091;-83
2022/03/22 08:45:22;;;;;;;10.73;3.78;;;;;;;40.33;7.35;101379.66;6159250;23;20013;-84
2022/03/22 08:47:50;;;;;;;15.65;4.10;;;;;;;41.21;6.89;101286.09;6183944;23;20021;-85
2022/03/22 08:50:19;;;;;;;10.02;2.88;;;;;;;42.56;6.37;101373.97;6156699;23;20021;-80
2022/03/22 08:52:47;;;;;;;7.00;2.63;;;;;;;43.34;6.42;101382.59;6106217;23;20010;-83
2022/03/22 08:55:15;;;;;;;4.93;1.75;;;;;;;43.64;5.97;101362.47;6178242;23;20021;-81
2022/03/22 08:57:42;;;;;;;10.18;2.17;;;;;;;43.19;6.03;101322.38;6129833;23;20028;-85
2022/03/22 09:00:11;;;;;;;13.70;2.63;;;;;;;43.27;5.55;101298.69;6179654;23;20048;-86
2022/03/22 09:02:41;;;;;;;12.15;2.75;;;;;;;43.58;5.54;101301.09;6177209;23;20025;-83
2022/03/22 09:08:00;;;;;;;4.85;2.08;;;;;;;43.07;5.88;101266.47;6155801;23;20371;-85
2022/03/22 09:10:31;;;;;;;9.13;2.95;;;;;;;43.59;5.70;101330.19;6179436;23;20029;-84
2022/03/22 09:12:58;;;;;;;6.85;4.30;;;;;;;43.74;5.90;101283.56;6155934;23;20041;-84
2022/03/22 09:15:28;;;;;;;4.45;2.00;;;;;;;43.88;5.50;101298.22;6155824;23;20056;-84
2022/03/22 09:18:00;;;;;;;4.68;1.90;;;;;;;43.21;5.47;101324.94;6165587;23;20211;-82
2022/03/22 09:20:33;;;;;;;11.00;2.40;;;;;;;42.40;6.26;101205.47;6173320;23;20013;-82
2022/03/22 09:23:01;;;;;;;6.72;2.25;;;;;;;42.17;6.25;101255.59;6192509;23;20017;-81
2022/03/22 09:25:28;;;;;;;7.60;2.20;;;;;;;42.26;6.00;101311.88;6170307;23;20073;-83
2022/03/22 09:27:55;;;;;;;11.32;2.42;;;;;;;42.24;6.38;101278.44;6159387;23;20021;-87
2022/03/22 09:30:35;;;;;;;15.48;2.50;;;;;;;42.48;5.90;101287.41;6162099;23;20024;-81
2022/03/22 09:33:04;;;;;;;8.48;2.15;;;;;;;41.17;5.97;101252.00;6155056;23;20092;-87
2022/03/22 09:35:33;;;;;;;6.28;2.10;;;;;;;40.92;6.50;101233.91;6164513;23;20017;-85
2022/03/22 09:38:03;;;;;;;6.60;2.20;;;;;;;41.38;6.55;101293.13;6169087;23;20028;-83
2022/03/22 09:40:35;;;;;;;;;;;;;;;41.44;6.64;101315.28;6178576;23;20117;-84
2022/03/22 09:43:02;;;;;;;11.13;2.00;;;;;;;41.13;6.28;101259.72;6173951;23;19943;-84
2022/03/22 09:45:33;;;;;;;14.63;2.70;;;;;;;41.82;6.52;101313.47;6167369;23;20028;-85
2022/03/22 09:48:12;;;;;;;3.45;1.90;;;;;;;41.90;6.42;101166.91;6155138;23;20336;-87
2022/03/22 09:53:43;;;;;;;5.75;2.13;;;;;;;42.26;6.26;101229.03;6155729;23;20032;-84
2022/03/22 09:56:15;;;;;;;5.65;2.10;;;;;;;41.95;6.06;101176.28;6154067;23;20017;-82
2022/03/22 09:58:51;;;;;;;13.68;2.72;;;;;;;41.75;5.82;101181.41;6158183;23;20017;-87
2022/03/22 10:01:26;;;;;;;5.30;2.13;;;;;;;42.12;6.12;101307.25;6156123;23;20063;-86
2022/03/22 10:04:06;;;;;;;11.18;2.33;;;;;;;40.76;5.86;101183.03;6153094;23;20482;-86
2022/03/22 10:06:37;;;;;;;9.95;2.45;;;;;;;40.33;6.42;101240.66;6180538;23;20025;-84
2022/03/22 10:10:02;;;;;;;;;;;;;;;;;;;;;
2022/03/22 10:12:38;;;;;;;11.07;2.33;;;;;;;40.26;6.86;101296.88;6125838;23;20014;-85
2022/03/22 10:15:10;;;;;;;7.40;1.92;;;;;;;40.05;6.53;101291.94;6073778;23;20121;-86
2022/03/22 10:17:37;;;;;;;5.88;2.22;;;;;;;40.38;6.36;101229.19;6121448;23;20141;-87
2022/03/22 10:20:05;;;;;;;6.43;2.15;;;;;;;39.45;6.54;101274.91;6099940;23;20028;-89
2022/03/22 10:22:33;;;;;;;8.50;2.75;;;;;;;37.21;6.75;101181.28;6074699;23;20101;-87
2022/03/22 10:25:01;;;;;;;4.05;2.00;;;;;;;35.02;7.06;101293.06;6121439;23;20022;-85
2022/03/22 10:27:30;;;;;;;5.25;1.50;;;;;;;32.11;7.68;101237.03;6121033;23;20104;-86
2022/03/22 10:30:10;;;;;;;5.32;1.90;;;;;;;29.51;8.39;101178.59;6120758;23;20130;-85
2022/03/22 10:32:41;;;;;;;8.57;2.47;;;;;;;28.54;8.98;101237.41;6096792;23;20018;-85
2022/03/22 10:35:10;;;;;;;;;;;;;;;28.04;9.64;101293.88;6048539;23;20018;-84
2022/03/22 10:37:37;;;;;;;5.72;1.77;;;;;;;27.23;9.55;101286.91;6121095;23;20397;-86
2022/03/22 10:40:18;;;;;;;5.32;2.40;;;;;;;26.25;10.60;101267.16;6095725;23;20021;-83
2022/03/22 10:42:44;;;;;;;4.50;1.55;;;;;;;25.07;10.84;101187.63;6103442;23;20053;-85
2022/03/22 10:45:11;;;;;;;7.78;1.58;;;;;;;24.54;11.06;101261.00;6164598;23;20072;-86
2022/03/22 10:47:47;;;;;;;5.10;2.00;;;;;;;23.85;11.50;101253.25;6178988;23;20040;-85
2022/03/22 10:50:13;;;;;;;3.80;2.08;;;;;;;23.41;11.55;101262.13;6104594;23;20021;-84
2022/03/22 10:52:49;;;;;;;6.80;2.00;;;;;;;22.69;12.25;101196.72;6154623;23;20009;-85
2022/03/22 10:55:21;;;;;;;5.05;2.53;;;;;;;22.19;12.11;101226.78;6177377;23;20028;-84
2022/03/22 10:58:02;;;;;;;12.57;2.28;;;;;;;22.11;12.52;101280.91;6152652;23;20043;-86
2022/03/22 11:00:31;;;;;;;4.15;2.20;;;;;;;20.36;13.16;101049.94;6127591;23;20371;-84
2022/03/22 11:02:57;;;;;;;2.90;1.38;;;;;;;20.16;13.28;101077.84;6153524;23;20033;-82
2022/03/22 11:05:53;;;;;;;5.53;1.85;;;;;;;19.70;13.42;101112.47;6153414;23;20072;-85
2022/03/22 11:08:26;;;;;;;6.32;1.95;;;;;;;19.47;14.04;101157.97;6156255;23;20109;-87
2022/03/22 11:10:57;;;;;;;9.43;2.08;;;;;;;19.19;14.46;101153.34;6137393;23;20017;-87
2022/03/22 11:13:33;;;;;;;6.68;1.85;;;;;;;18.94;14.71;101169.69;6157378;23;20021;-89
2022/03/22 11:16:13;;;;;;;5.85;1.90;;;;;;;19.05;14.84;101210.81;6181161;23;20366;-87
2022/03/22 11:18:42;;;;;;;5.25;1.40;;;;;;;18.78;14.81;101190.22;6179846;23;20017;-84
2022/03/22 11:21:15;;;;;;;8.48;2.22;;;;;;;18.08;14.79;101140.69;6153334;23;20017;-86
2022/03/22 11:23:44;;;;;;;5.38;1.42;;;;;;;17.52;15.07;101104.78;6151078;23;20044;-86
2022/03/22 11:26:17;;;;;;;2.45;1.00;;;;;;;17.55;15.35;101135.44;6128539;23;20017;-86
2022/03/22 11:28:53;;;;;;;15.38;2.33;;;;;;;17.95;15.48;101245.34;6153746;23;20021;-86
2022/03/22 11:31:21;;;;;;;5.55;1.80;;;;;;;17.54;15.86;101244.25;6153063;23;20510;-84
2022/03/22 11:34:09;;;;;;;3.08;1.83;;;;;;;17.56;15.76;101260.84;6154092;23;20020;-84
2022/03/22 11:36:46;;;;;;;5.68;1.33;;;;;;;17.10;15.63;101234.28;6178397;23;20013;-85
2022/03/22 11:42:15;;;;;;;6.78;2.70;;;;;;;16.71;16.23;101199.72;6155229;23;20017;-84
2022/03/22 11:42:21;;;;;;;7.20;3.08;;;;;;;16.42;16.65;101170.28;6127304;23;20109;-84
2022/03/22 11:44:58;;;;;;;10.57;4.00;;;;;;;16.93;16.74;101270.44;6128667;23;20097;-87
2022/03/22 11:47:25;;;;;;;3.83;1.33;;;;;;;16.03;16.67;101145.31;6153609;23;20022;-85
2022/03/22 11:49:58;;;;;;;5.65;1.95;;;;;;;16.50;17.02;101253.41;6132879;23;20099;-84
2022/03/22 11:52:35;;;;;;;4.25;1.45;;;;;;;16.53;17.18;101263.88;6179195;23;20418;-84
2022/03/22 11:55:28;;;;;;;5.50;2.63;;;;;;;16.42;17.28;101274.50;6129433;23;20022;-83
2022/03/22 11:58:10;;;;;;;5.80;3.95;;;;;;;15.72;17.36;101184.94;6129678;23;20065;-84
2022/03/22 12:01:00;;;;;;;10.20;3.30;;;;;;;15.88;17.74;101214.59;6136184;23;20017;-83
2022/03/22 12:03:35;;;;;;;5.03;3.22;;;;;;;15.98;17.70;101247.75;6156152;23;20018;-84